createdAt,value
2024-05-09T00:01:18.813Z,22.36
2024-05-09T00:03:49.332Z,22.31
2024-05-09T00:06:19.531Z,22.33
2024-05-09T00:08:50.648Z,22.21
2024-05-09T00:11:21.824Z,22.09
2024-05-09T00:13:52.154Z,22.23
2024-05-09T00:16:22.035Z,22.06
2024-05-09T00:18:52.965Z,22.04
2024-05-09T00:21:23.699Z,22.04
2024-05-09T00:23:54.129Z,21.88
2024-05-09T00:26:25.480Z,21.81
2024-05-09T00:28:55.759Z,21.76
2024-05-09T00:31:27.875Z,21.79
2024-05-09T00:33:59.358Z,21.81
2024-05-09T00:36:29.625Z,21.82
2024-05-09T00:38:59.456Z,21.75
2024-05-09T00:41:30.194Z,21.63
2024-05-09T00:44:01.983Z,21.55
2024-05-09T00:46:32.430Z,21.54
2024-05-09T00:49:02.912Z,21.46
2024-05-09T00:51:34.828Z,21.32
2024-05-09T00:54:06.644Z,21.38
2024-05-09T00:56:37.661Z,21.39
2024-05-09T00:59:08.480Z,21.37
2024-05-09T01:01:39.187Z,21.45
2024-05-09T01:04:10.707Z,21.30
2024-05-09T01:06:41.680Z,21.20
2024-05-09T01:09:11.578Z,21.15
2024-05-09T01:11:43.270Z,21.14
2024-05-09T01:14:14.347Z,21.11
2024-05-09T01:16:44.375Z,21.05
2024-05-09T01:19:25.106Z,21.04
2024-05-09T01:21:56.132Z,20.93
2024-05-09T01:24:27.166Z,20.73
2024-05-09T01:26:57.180Z,20.74
2024-05-09T01:29:27.176Z,20.69
2024-05-09T01:32:00.587Z,20.65
2024-05-09T01:34:31.132Z,20.52
2024-05-09T01:37:01.914Z,20.45
2024-05-09T01:39:33.934Z,20.47
2024-05-09T01:42:04.389Z,20.40
2024-05-09T01:44:35.073Z,20.32
2024-05-09T01:47:06.872Z,20.32
2024-05-09T01:49:38.635Z,20.30
2024-05-09T01:52:09.478Z,20.35
2024-05-09T01:54:39.928Z,20.40
2024-05-09T01:57:11.415Z,20.28
2024-05-09T01:59:42.044Z,20.21
2024-05-09T02:02:13.082Z,20.16
2024-05-09T02:04:43.902Z,20.09
2024-05-09T02:07:15.439Z,20.02
2024-05-09T02:09:45.269Z,19.91
2024-05-09T02:12:15.675Z,19.81
2024-05-09T02:14:46.365Z,19.74
2024-05-09T02:17:17.233Z,19.71
2024-05-09T02:19:47.521Z,19.61
2024-05-09T02:22:18.033Z,19.56
2024-05-09T02:24:47.849Z,19.51
2024-05-09T02:27:17.897Z,19.41
2024-05-09T02:29:48.253Z,19.43
2024-05-09T02:32:19.176Z,19.34
2024-05-09T02:34:49.881Z,19.34
2024-05-09T02:37:20.955Z,19.33
2024-05-09T02:39:52.352Z,19.29
2024-05-09T02:42:22.886Z,19.30
2024-05-09T02:44:53.155Z,19.43
2024-05-09T02:47:23.199Z,19.54
2024-05-09T02:49:53.621Z,19.64
2024-05-09T02:52:23.717Z,19.73
2024-05-09T02:54:55.113Z,19.75
2024-05-09T02:57:25.788Z,19.77
2024-05-09T02:59:55.715Z,19.75
2024-05-09T03:02:26.311Z,19.70
2024-05-09T03:04:57.243Z,19.68
2024-05-09T03:07:27.252Z,19.73
2024-05-09T03:09:57.472Z,19.67
2024-05-09T03:12:30.122Z,19.63
2024-05-09T03:15:01.265Z,19.58
2024-05-09T03:17:32.145Z,19.57
2024-05-09T03:20:06.903Z,19.60
2024-05-09T03:22:40.078Z,19.56
2024-05-09T03:25:10.646Z,19.50
2024-05-09T03:27:40.737Z,19.49
2024-05-09T03:30:15.544Z,19.45
2024-05-09T03:32:48.722Z,19.40
2024-05-09T03:35:19.696Z,19.43
2024-05-09T03:37:50.059Z,19.49
2024-05-09T03:40:23.826Z,19.47
2024-05-09T03:42:57.045Z,19.47
2024-05-09T03:45:27.939Z,19.43
2024-05-09T03:47:58.629Z,19.40
2024-05-09T03:50:33.847Z,19.33
2024-05-09T03:53:06.738Z,19.29
2024-05-09T03:55:37.242Z,19.20
2024-05-09T03:58:09.681Z,19.15
2024-05-09T04:00:40.590Z,19.08
2024-05-09T04:03:12.687Z,19.02
2024-05-09T04:05:45.250Z,19.00
2024-05-09T04:08:16.638Z,18.99
2024-05-09T04:10:47.239Z,18.99
2024-05-09T04:13:17.801Z,18.96
2024-05-09T04:15:48.235Z,18.94
2024-05-09T04:18:19.991Z,18.95
2024-05-09T04:20:50.340Z,18.92
2024-05-09T04:23:20.268Z,18.94
2024-05-09T04:25:50.592Z,18.89
2024-05-09T04:28:21.465Z,18.88
2024-05-09T04:30:52.917Z,18.88
2024-05-09T04:33:23.264Z,18.84
2024-05-09T04:35:55.439Z,18.81
2024-05-09T04:38:26.026Z,18.69
2024-05-09T04:40:57.214Z,18.58
2024-05-09T04:43:27.535Z,18.47
2024-05-09T04:45:58.678Z,18.43
2024-05-09T04:48:30.378Z,18.38
2024-05-09T04:51:03.237Z,18.29
2024-05-09T04:53:33.795Z,18.30
2024-05-09T04:56:04.722Z,18.24
2024-05-09T04:58:34.957Z,18.21
2024-05-09T05:01:06.212Z,18.26
2024-05-09T05:03:36.926Z,18.20
2024-05-09T05:06:07.520Z,18.14
2024-05-09T05:08:37.966Z,18.09
2024-05-09T05:11:08.894Z,18.10
2024-05-09T05:13:41.319Z,18.00
2024-05-09T05:16:12.896Z,17.96
2024-05-09T05:18:45.696Z,17.94
2024-05-09T05:21:16.840Z,17.87
2024-05-09T05:23:46.925Z,17.86
2024-05-09T05:26:21.404Z,17.82
2024-05-09T05:28:52.146Z,17.79
2024-05-09T05:31:23.092Z,17.72
2024-05-09T05:33:53.567Z,17.71
2024-05-09T05:36:24.854Z,17.68
2024-05-09T05:38:55.529Z,17.62
2024-05-09T05:41:25.896Z,17.53
2024-05-09T05:43:56.297Z,17.52
2024-05-09T05:46:26.581Z,17.45
2024-05-09T05:48:57.391Z,17.41
2024-05-09T05:51:28.092Z,17.28
2024-05-09T05:53:58.204Z,17.24
2024-05-09T05:56:31.319Z,17.13
2024-05-09T05:59:02.092Z,17.06
2024-05-09T06:01:33.876Z,17.00
2024-05-09T06:04:04.553Z,16.97
2024-05-09T06:06:34.392Z,16.90
2024-05-09T06:09:05.067Z,16.81
2024-05-09T06:11:36.152Z,16.80
2024-05-09T06:14:06.689Z,16.79
2024-05-09T06:16:37.269Z,16.80
2024-05-09T06:19:09.023Z,16.72
2024-05-09T06:21:39.599Z,16.63
2024-05-09T06:24:09.656Z,16.56
2024-05-09T06:26:43.773Z,16.51
2024-05-09T06:29:17.417Z,16.45
2024-05-09T06:31:48.470Z,16.38
2024-05-09T06:34:20.735Z,16.35
2024-05-09T06:36:51.038Z,16.36
2024-05-09T06:39:20.849Z,16.45
2024-05-09T06:41:51.809Z,16.49
2024-05-09T06:44:22.054Z,16.52
2024-05-09T06:46:53.334Z,16.48
2024-05-09T06:49:24.527Z,16.39
2024-05-09T06:51:54.817Z,16.38
2024-05-09T06:54:26.552Z,16.38
2024-05-09T06:56:57.322Z,16.36
2024-05-09T06:59:27.663Z,16.33
2024-05-09T07:01:57.531Z,16.35
2024-05-09T07:04:27.835Z,16.41
2024-05-09T07:06:59.759Z,16.41
2024-05-09T07:09:31.892Z,16.38
2024-05-09T07:12:02.213Z,16.32
2024-05-09T07:14:33.827Z,16.30
2024-05-09T07:17:05.568Z,16.22
2024-05-09T07:19:36.538Z,16.11
2024-05-09T07:22:06.688Z,16.02
2024-05-09T07:24:38.675Z,15.97
2024-05-09T07:27:09.321Z,15.88
2024-05-09T07:29:39.713Z,15.84
2024-05-09T07:32:10.437Z,15.83
2024-05-09T07:34:40.366Z,15.80
2024-05-09T07:37:13.925Z,15.74
2024-05-09T07:39:44.634Z,15.70
2024-05-09T07:42:15.326Z,15.61
2024-05-09T07:44:45.697Z,15.58
2024-05-09T07:48:28.886Z,15.54
2024-05-09T07:52:22.660Z,15.53
2024-05-09T07:55:30.613Z,15.44
2024-05-09T07:58:01.126Z,15.42
2024-05-09T08:00:32.542Z,15.37
2024-05-09T08:03:03.218Z,15.37
2024-05-09T08:05:33.657Z,15.35
2024-05-09T08:08:03.565Z,15.26
2024-05-09T08:10:36.280Z,15.22
2024-05-09T08:13:07.819Z,15.23
2024-05-09T08:15:39.035Z,15.23
2024-05-09T08:18:12.767Z,15.20
2024-05-09T08:20:44.374Z,15.19
2024-05-09T08:23:15.450Z,15.16
2024-05-09T08:25:46.185Z,15.16
2024-05-09T08:28:16.692Z,15.13
2024-05-09T08:30:47.975Z,15.15
2024-05-09T08:33:18.730Z,15.12
2024-05-09T08:35:48.587Z,15.02
2024-05-09T08:38:19.140Z,15.03
2024-05-09T08:40:50.854Z,15.02
2024-05-09T08:43:21.865Z,14.99
2024-05-09T08:45:53.647Z,14.98
2024-05-09T08:48:25.678Z,14.88
2024-05-09T08:51:00.325Z,14.91
2024-05-09T08:53:31.217Z,14.91
2024-05-09T08:56:04.077Z,14.91
2024-05-09T08:58:36.448Z,14.87
2024-05-09T09:01:07.067Z,14.82
2024-05-09T09:03:39.682Z,14.75
2024-05-09T09:06:17.959Z,14.71
2024-05-09T09:08:49.036Z,14.71
2024-05-09T09:11:19.425Z,14.75
2024-05-09T09:13:49.948Z,14.77
2024-05-09T09:16:21.358Z,14.75
2024-05-09T09:18:52.554Z,14.71
2024-05-09T09:21:24.130Z,14.68
2024-05-09T09:23:55.040Z,14.71
2024-05-09T09:26:26.450Z,14.71
2024-05-09T09:29:03.091Z,14.71
2024-05-09T09:31:34.068Z,14.69
2024-05-09T09:34:10.133Z,14.64
2024-05-09T09:36:44.336Z,14.65
2024-05-09T09:39:18.344Z,14.64
2024-05-09T09:41:50.097Z,14.64
2024-05-09T09:44:23.391Z,14.52
2024-05-09T09:46:58.654Z,14.56
2024-05-09T09:49:37.779Z,14.56
2024-05-09T09:52:10.975Z,14.58
2024-05-09T09:54:41.862Z,14.56
2024-05-09T09:57:13.059Z,14.61
2024-05-09T09:59:47.529Z,14.56
2024-05-09T10:02:18.649Z,14.57
2024-05-09T10:04:49.248Z,14.57
2024-05-09T10:07:22.361Z,14.58
2024-05-09T10:09:57.609Z,14.57
2024-05-09T10:12:28.528Z,14.64
2024-05-09T10:14:58.943Z,14.65
2024-05-09T10:17:31.179Z,14.61
2024-05-09T10:20:21.339Z,14.65
2024-05-09T10:22:55.661Z,14.75
2024-05-09T10:25:27.180Z,14.75
2024-05-09T10:27:58.120Z,14.84
2024-05-09T10:30:34.245Z,14.95
2024-05-09T10:33:12.910Z,15.16
2024-05-09T10:35:55.887Z,16.01
2024-05-09T10:38:28.416Z,16.95
2024-05-09T10:41:01.614Z,17.30
2024-05-09T10:43:34.011Z,17.39
2024-05-09T10:46:05.907Z,17.46
2024-05-09T10:48:39.223Z,17.56
2024-05-09T10:51:10.079Z,17.87
2024-05-09T10:53:44.715Z,17.58
2024-05-09T10:56:18.762Z,17.99
2024-05-09T10:58:52.700Z,18.65
2024-05-09T11:01:23.411Z,17.86
2024-05-09T11:03:54.222Z,17.51
2024-05-09T11:06:26.143Z,17.42
2024-05-09T11:08:58.861Z,17.51
2024-05-09T11:11:29.408Z,17.55
2024-05-09T11:13:59.541Z,17.34
2024-05-09T11:16:29.990Z,17.30
2024-05-09T11:19:01.183Z,17.44
2024-05-09T11:21:31.380Z,17.56
2024-05-09T11:24:01.236Z,17.72
2024-05-09T11:26:33.663Z,17.71
2024-05-09T11:29:04.504Z,18.02
2024-05-09T11:31:38.264Z,20.70
2024-05-09T11:34:11.848Z,22.03
2024-05-09T11:36:42.530Z,23.77
2024-05-09T11:39:13.228Z,25.78
2024-05-09T11:41:44.496Z,26.67
2024-05-09T11:44:14.537Z,28.15
2024-05-09T11:46:45.074Z,28.63
2024-05-09T11:49:15.894Z,28.86
2024-05-09T11:51:46.647Z,28.77
2024-05-09T11:54:17.689Z,28.77
2024-05-09T11:56:48.124Z,28.60
2024-05-09T11:59:18.020Z,29.62
2024-05-09T12:01:48.790Z,28.55
2024-05-09T12:04:19.554Z,27.45
2024-05-09T12:06:50.688Z,28.49
2024-05-09T12:09:20.585Z,27.22
2024-05-09T12:11:50.824Z,28.59
2024-05-09T12:14:22.042Z,28.25
2024-05-09T12:16:52.538Z,29.89
2024-05-09T12:19:22.478Z,29.35
2024-05-09T12:21:53.252Z,26.94
2024-05-09T12:24:25.026Z,27.86
2024-05-09T12:26:55.634Z,26.92
2024-05-09T12:29:26.340Z,24.12
2024-05-09T12:31:56.535Z,24.21
2024-05-09T12:34:27.300Z,25.64
2024-05-09T12:36:57.882Z,26.29
2024-05-09T12:39:29.091Z,28.24
2024-05-09T12:42:00.281Z,28.77
2024-05-09T12:44:30.528Z,29.25
2024-05-09T12:47:01.219Z,24.84
2024-05-09T12:49:32.391Z,22.41
2024-05-09T12:52:04.686Z,25.96
2024-05-09T12:54:35.113Z,28.18
2024-05-09T12:57:05.136Z,28.90
2024-05-09T12:59:35.331Z,25.02
2024-05-09T13:02:06.209Z,22.41
2024-05-09T13:04:37.248Z,20.74
2024-05-09T13:07:08.366Z,19.99
2024-05-09T13:09:38.402Z,19.53
2024-05-09T13:12:09.520Z,19.23
2024-05-09T13:14:40.442Z,18.99
2024-05-09T13:17:10.822Z,19.18
2024-05-09T13:19:41.029Z,22.84
2024-05-09T13:22:11.505Z,25.31
2024-05-09T13:24:42.293Z,27.02
2024-05-09T13:27:12.466Z,27.06
2024-05-09T13:29:44.336Z,27.32
2024-05-09T13:32:15.390Z,26.33
2024-05-09T13:34:46.747Z,24.30
2024-05-09T13:37:18.123Z,22.23
2024-05-09T13:39:48.643Z,21.38
2024-05-09T13:42:19.661Z,21.18
2024-05-09T13:44:50.517Z,20.88
2024-05-09T13:47:20.929Z,20.47
2024-05-09T13:49:51.543Z,20.38
2024-05-09T13:52:21.955Z,21.89
2024-05-09T13:54:52.923Z,21.35
2024-05-09T13:57:23.649Z,20.73
2024-05-09T13:59:53.702Z,20.70
2024-05-09T14:02:24.100Z,22.87
2024-05-09T14:04:54.703Z,22.92
2024-05-09T14:07:25.615Z,21.44
2024-05-09T14:09:55.569Z,20.73
2024-05-09T14:12:26.057Z,20.53
2024-05-09T14:14:55.933Z,20.47
2024-05-09T14:17:26.668Z,20.33
2024-05-09T14:19:57.082Z,20.57
2024-05-09T14:22:27.624Z,20.83
2024-05-09T14:24:57.579Z,22.98
2024-05-09T14:27:28.143Z,24.48
2024-05-09T14:29:59.127Z,25.21
2024-05-09T14:32:29.626Z,24.73
2024-05-09T14:34:59.832Z,25.33
2024-05-09T14:37:30.011Z,25.58
2024-05-09T14:40:00.449Z,24.39
2024-05-09T14:42:33.824Z,22.23
2024-05-09T14:45:04.934Z,21.65
2024-05-09T14:47:35.880Z,21.41
2024-05-09T14:50:08.989Z,22.06
2024-05-09T14:52:41.589Z,23.23
2024-05-09T14:55:12.454Z,23.93
2024-05-09T14:57:43.503Z,24.22
2024-05-09T15:00:21.077Z,24.98
2024-05-09T15:02:57.481Z,24.52
2024-05-09T15:05:28.430Z,23.39
2024-05-09T15:07:59.869Z,22.64
2024-05-09T15:10:34.781Z,22.14
2024-05-09T15:13:09.618Z,22.41
2024-05-09T15:15:41.861Z,22.24
2024-05-09T15:18:12.471Z,21.56
2024-05-09T15:20:43.050Z,21.35
2024-05-09T15:23:14.479Z,20.93
2024-05-09T15:25:45.968Z,20.91
2024-05-09T15:28:16.869Z,20.72
2024-05-09T15:30:47.369Z,20.97
2024-05-09T15:33:17.755Z,21.03
2024-05-09T15:35:49.763Z,21.46
2024-05-09T15:38:21.092Z,21.45
2024-05-09T15:40:51.580Z,22.16
2024-05-09T15:43:21.658Z,23.31
2024-05-09T15:45:53.302Z,23.80
2024-05-09T15:48:24.348Z,23.03
2024-05-09T15:50:55.458Z,23.29
2024-05-09T15:53:26.248Z,22.51
2024-05-09T15:55:56.193Z,22.41
2024-05-09T15:58:27.260Z,21.81
2024-05-09T16:00:58.037Z,21.69
2024-05-09T16:03:29.808Z,21.07
2024-05-09T16:06:00.165Z,22.18
2024-05-09T16:08:30.154Z,23.15
2024-05-09T16:11:01.144Z,23.46
2024-05-09T16:13:31.704Z,23.77
2024-05-09T16:16:02.831Z,24.01
2024-05-09T16:18:33.645Z,24.05
2024-05-09T16:21:04.088Z,24.53
2024-05-09T16:23:35.706Z,24.65
2024-05-09T16:26:06.285Z,23.60
2024-05-09T16:28:37.922Z,24.07
2024-05-09T16:31:08.293Z,24.07
2024-05-09T16:33:38.333Z,24.15
2024-05-09T16:36:10.165Z,24.70
2024-05-09T16:38:42.151Z,25.03
2024-05-09T16:41:12.693Z,24.77
2024-05-09T16:43:42.855Z,24.91
2024-05-09T16:46:13.263Z,23.47
2024-05-09T16:48:48.878Z,23.46
2024-05-09T16:51:20.633Z,23.68
2024-05-09T16:53:51.158Z,23.96
2024-05-09T16:56:24.971Z,24.66
2024-05-09T16:58:55.469Z,25.02
2024-05-09T17:01:25.823Z,24.79
2024-05-09T17:03:56.775Z,24.17
2024-05-09T17:06:27.536Z,24.00
2024-05-09T17:09:04.848Z,24.09
2024-05-09T17:11:38.779Z,24.98
2024-05-09T17:14:09.132Z,24.45
2024-05-09T17:16:39.842Z,26.80
2024-05-09T17:19:11.031Z,26.99
2024-05-09T17:21:42.284Z,26.45
2024-05-09T17:24:13.253Z,27.69
2024-05-09T17:26:43.655Z,28.67
2024-05-09T17:29:14.136Z,29.96
2024-05-09T17:31:45.074Z,29.96
2024-05-09T17:34:15.873Z,30.41
2024-05-09T17:36:46.811Z,29.95
2024-05-09T17:39:16.766Z,29.54
2024-05-09T17:41:47.724Z,27.06
2024-05-09T17:44:18.791Z,27.69
2024-05-09T17:46:50.717Z,28.67
2024-05-09T17:49:21.234Z,25.89
2024-05-09T17:51:56.408Z,25.33
2024-05-09T17:54:27.933Z,24.04
2024-05-09T17:56:58.229Z,23.66
2024-05-09T17:59:28.269Z,23.60
2024-05-09T18:01:59.370Z,24.22
2024-05-09T18:04:33.296Z,25.03
2024-05-09T18:07:05.295Z,28.00
2024-05-09T18:09:35.664Z,30.33
2024-05-09T18:12:06.462Z,30.96
2024-05-09T18:14:37.386Z,31.29
2024-05-09T18:17:07.979Z,30.95
2024-05-09T18:19:38.395Z,30.29
2024-05-09T18:22:08.550Z,29.18
2024-05-09T18:24:39.791Z,28.18
2024-05-09T18:27:11.245Z,26.71
2024-05-09T18:29:42.195Z,25.25
2024-05-09T18:32:12.955Z,25.62
2024-05-09T18:34:44.025Z,24.19
2024-05-09T18:37:14.571Z,24.07
2024-05-09T18:39:44.678Z,24.15
2024-05-09T18:42:15.464Z,23.24
2024-05-09T18:44:45.820Z,22.85
2024-05-09T18:47:19.850Z,22.62
2024-05-09T18:49:50.861Z,22.10
2024-05-09T18:52:21.501Z,21.78
2024-05-09T18:54:51.886Z,21.88
2024-05-09T18:57:23.881Z,21.81
2024-05-09T18:59:53.971Z,21.72
2024-05-09T19:02:24.007Z,21.32
2024-05-09T19:04:54.577Z,20.84
2024-05-09T19:07:24.975Z,20.52
2024-05-09T19:09:56.051Z,20.29
2024-05-09T19:12:26.778Z,20.07
2024-05-09T19:14:56.666Z,19.89
2024-05-09T19:17:27.509Z,19.87
2024-05-09T19:19:58.211Z,19.74
2024-05-09T19:22:29.406Z,19.70
2024-05-09T19:24:59.722Z,19.66
2024-05-09T19:27:30.232Z,19.64
2024-05-09T19:30:01.254Z,19.54
2024-05-09T19:32:31.401Z,19.49
2024-05-09T19:35:01.708Z,19.47
2024-05-09T19:37:33.013Z,19.39
2024-05-09T19:40:06.662Z,19.33
2024-05-09T19:42:38.634Z,19.26
2024-05-09T19:45:09.657Z,19.13
2024-05-09T19:47:41.053Z,19.08
2024-05-09T19:50:16.298Z,19.06
2024-05-09T19:52:53.112Z,19.03
2024-05-09T19:55:23.268Z,18.95
2024-05-09T19:57:54.507Z,18.91
2024-05-09T20:00:32.694Z,18.85
2024-05-09T20:03:06.722Z,18.76
2024-05-09T20:05:38.181Z,18.52
2024-05-09T20:08:10.014Z,18.52
2024-05-09T20:10:40.868Z,18.33
2024-05-09T20:13:11.115Z,18.20
2024-05-09T20:15:41.308Z,18.07
2024-05-09T20:18:12.062Z,17.93
2024-05-09T20:20:44.993Z,17.81
2024-05-09T20:23:17.014Z,17.65
2024-05-09T20:25:47.357Z,17.56
2024-05-09T20:28:17.443Z,17.44
2024-05-09T20:30:48.278Z,17.31
2024-05-09T20:33:19.218Z,17.18
2024-05-09T20:35:49.941Z,17.07
2024-05-09T20:38:19.939Z,16.95
2024-05-09T20:40:50.102Z,16.86
2024-05-09T20:43:21.083Z,16.80
2024-05-09T20:45:52.142Z,16.69
2024-05-09T20:48:23.146Z,16.55
2024-05-09T20:50:53.632Z,16.42
2024-05-09T20:53:24.002Z,16.35
2024-05-09T20:55:54.864Z,16.32
2024-05-09T20:58:25.755Z,16.28
2024-05-09T21:00:56.773Z,16.25
2024-05-09T21:03:27.230Z,16.16
2024-05-09T21:05:58.403Z,16.12
2024-05-09T21:08:29.679Z,16.04
2024-05-09T21:11:00.566Z,15.97
2024-05-09T21:13:30.706Z,15.90
2024-05-09T21:16:01.305Z,15.84
2024-05-09T21:18:32.318Z,15.80
2024-05-09T21:21:02.825Z,15.76
2024-05-09T21:23:33.319Z,15.81
2024-05-09T21:26:04.213Z,15.80
2024-05-09T21:28:34.548Z,15.70
2024-05-09T21:31:05.086Z,15.64
2024-05-09T21:33:35.499Z,15.66
2024-05-09T21:36:06.122Z,15.61
2024-05-09T21:38:37.169Z,15.60
2024-05-09T21:41:09.314Z,15.54
2024-05-09T21:43:39.980Z,15.54
2024-05-09T21:46:10.412Z,15.53
2024-05-09T21:48:41.285Z,15.51
2024-05-09T21:51:15.930Z,15.43
2024-05-09T21:53:46.040Z,15.37
2024-05-09T21:56:15.991Z,15.32
2024-05-09T21:58:46.290Z,15.39
2024-05-09T22:01:17.045Z,15.30
2024-05-09T22:03:48.411Z,15.25
2024-05-09T22:06:19.099Z,15.18
2024-05-09T22:08:49.670Z,15.16
2024-05-09T22:11:20.485Z,15.06
2024-05-09T22:13:52.915Z,15.08
2024-05-09T22:16:24.486Z,15.10
2024-05-09T22:18:55.007Z,15.08
2024-05-09T22:21:25.441Z,15.09
2024-05-09T22:23:56.278Z,15.06
2024-05-09T22:26:26.350Z,15.13
2024-05-09T22:28:56.674Z,15.13
2024-05-09T22:31:28.071Z,15.09
2024-05-09T22:33:59.495Z,14.99
2024-05-09T22:36:29.948Z,14.99
2024-05-09T22:38:59.854Z,14.98
2024-05-09T22:41:31.017Z,14.89
2024-05-09T22:44:03.206Z,14.96
2024-05-09T22:46:33.678Z,14.93
2024-05-09T22:49:03.833Z,14.93
2024-05-09T22:51:36.837Z,14.91
2024-05-09T22:54:07.290Z,14.87
2024-05-09T22:56:37.334Z,14.91
2024-05-09T22:59:08.275Z,14.91
2024-05-09T23:01:39.522Z,14.84
2024-05-09T23:04:10.924Z,14.81
2024-05-09T23:06:44.329Z,14.75
2024-05-09T23:09:14.997Z,14.71
2024-05-09T23:11:47.295Z,14.64
2024-05-09T23:14:17.991Z,14.61
2024-05-09T23:16:49.998Z,14.54
2024-05-09T23:19:20.430Z,14.60
2024-05-09T23:21:50.735Z,14.48
2024-05-09T23:24:21.918Z,14.40
2024-05-09T23:26:52.519Z,14.34
2024-05-09T23:29:22.455Z,14.33
2024-05-09T23:31:52.477Z,14.20
2024-05-09T23:34:23.205Z,14.13
2024-05-09T23:36:53.968Z,14.10
2024-05-09T23:39:24.547Z,14.16
2024-05-09T23:41:54.400Z,14.16
2024-05-09T23:44:24.695Z,14.17
2024-05-09T23:46:55.257Z,14.13
2024-05-09T23:49:25.983Z,14.13
2024-05-09T23:51:56.439Z,14.16
2024-05-09T23:54:26.455Z,14.23
2024-05-09T23:56:57.175Z,14.17
2024-05-09T23:59:27.754Z,14.03
